Дата Пункты Температура Давл., мм. Влажн., % Ветер Погодные явления
Воздуха Воды Направл. Скорость
01.09.15 08:00 Одесса 26.0 23.0 759 63 Пд-З 2 09 часов
01.09.15 05:00 Одесса 22.0 23.0 759 69 З 3 06 часов
01.09.15 02:00 Одесса 23.0 23.0 759 62 З 5 03 часа
31.08.15 08:00 Одесса 25.0 23.0 760 56 Пд-З 4 21 час
31.08.15 05:00 Одесса 26.0 23.0 760 59 Пд-З 2 18 часов
31.08.15 02:00 Одесса 28.0 23.0 761 45 Пд 3 15 часов
31.08.15 11:00 Одесса 26.0 23.0 762 65 Пд 2 12 часов
31.08.15 08:00 Одесса 25.0 23.0 763 51 З 1 09 часов
31.08.15 05:00 Одесса 19.0 23.0 762 80 З 2 06 часов
31.08.15 02:00 Одесса 20.0 23.0 763 71 З 1 03 часа
30.08.15 08:00 Одесса 23.0 23.0 763 56 Пд-З 2 21 час
30.08.15 05:00 Одесса 25.0 23.0 763 49 Пд 3 18 часов
30.08.15 02:00 Одесса 26.0 23.0 764 45 Пд-С 2 15 часов
30.08.15 11:00 Одесса 26.0 23.0 765 47 С 2 12 часов
30.08.15 08:00 Одесса 24.0 23.0 764 58 Пн 3 09 часов
30.08.15 05:00 Одесса 22.0 22.0 763 72 Пн 2 06 часов
30.08.15 02:00 Одесса 25.0 22.0 762 59 Пн-З 2 03 часа
29.08.15 08:00 Одесса 26.0 22.0 761 59 З 2 21 час
29.08.15 05:00 Одесса 26.0 22.0 760 73 Пд 2 18 часов
29.08.15 02:00 Одесса 26.0 22.0 761 74 Пд 4 15 часов
Количество строк
351 352 353 354 355 356 357 358 359 360
Page 353 of 481